createdAt,value
2024-01-20T00:00:30.673Z,11.8
2024-01-20T00:05:18.733Z,10.2
2024-01-20T00:10:24.662Z,9.5
2024-01-20T00:15:30.609Z,10.3
2024-01-20T00:20:19.840Z,10.7
2024-01-20T00:25:25.712Z,9.5
2024-01-20T00:30:31.775Z,9.0
2024-01-20T00:35:20.958Z,8.7
2024-01-20T00:40:26.896Z,8.5
2024-01-20T00:45:32.862Z,11.0
2024-01-20T00:50:21.974Z,12.0
2024-01-20T00:55:27.749Z,11.9
2024-01-20T01:00:33.822Z,11.8
2024-01-20T01:05:22.840Z,9.7
2024-01-20T01:10:28.855Z,8.7
2024-01-20T01:15:17.933Z,8.7
2024-01-20T01:20:24.068Z,8.8
2024-01-20T01:25:29.957Z,10.0
2024-01-20T01:30:21.758Z,10.8
2024-01-20T01:35:25.296Z,9.2
2024-01-20T01:40:31.278Z,8.4
2024-01-20T01:45:20.393Z,8.7
2024-01-20T01:50:26.250Z,8.8
2024-01-20T01:55:32.021Z,9.5
2024-01-20T02:00:21.186Z,10.0
2024-01-20T02:05:27.112Z,10.6
2024-01-20T02:10:33.346Z,11.0
2024-01-20T02:15:22.395Z,11.2
2024-01-20T02:20:28.646Z,11.3
2024-01-20T02:25:34.470Z,11.7
2024-01-20T02:30:23.502Z,12.0
2024-01-20T02:35:29.557Z,9.9
2024-01-20T02:40:18.553Z,8.4
2024-01-20T02:45:24.698Z,8.2
2024-01-20T02:50:29.777Z,8.1
2024-01-20T02:55:18.745Z,8.3
2024-01-20T03:00:24.904Z,8.3
2024-01-20T03:05:31.059Z,9.5
2024-01-20T03:10:20.102Z,10.2
2024-01-20T03:15:26.339Z,12.5
2024-01-20T03:20:32.177Z,14.1
2024-01-20T03:25:21.220Z,11.6
2024-01-20T03:30:27.330Z,9.7
2024-01-20T03:35:33.373Z,9.0
2024-01-20T03:40:22.443Z,8.5
2024-01-20T03:45:28.750Z,8.0
2024-01-20T03:50:34.301Z,7.5
2024-01-20T03:55:24.153Z,10.7
2024-01-20T04:00:29.391Z,13.2
2024-01-20T04:05:23.560Z,11.0
2024-01-20T04:10:23.525Z,9.5
2024-01-20T04:15:29.751Z,9.5
2024-01-20T04:20:18.764Z,9.5
2024-01-20T04:25:24.761Z,10.7
2024-01-20T04:30:31.043Z,11.7
2024-01-20T04:35:19.793Z,10.4
2024-01-20T04:40:25.923Z,9.1
2024-01-20T04:45:32.035Z,10.8
2024-01-20T04:50:20.741Z,12.9
2024-01-20T04:55:26.836Z,11.6
2024-01-20T05:00:32.947Z,9.7
2024-01-20T05:05:22.144Z,9.8
2024-01-20T05:10:28.132Z,9.9
2024-01-20T05:15:34.588Z,10.1
2024-01-20T05:20:23.274Z,10.3
2024-01-20T05:25:29.229Z,9.3
2024-01-20T05:30:18.492Z,7.9
2024-01-20T05:35:24.364Z,8.4
2024-01-20T05:40:30.387Z,9.0
2024-01-20T05:45:19.610Z,8.9
2024-01-20T05:50:25.429Z,8.8
2024-01-20T05:55:31.133Z,9.6
2024-01-20T06:00:20.366Z,10.8
2024-01-20T06:05:25.422Z,12.0
2024-01-20T06:10:31.459Z,13.4
2024-01-20T06:15:20.708Z,12.8
2024-01-20T06:20:26.621Z,12.0
2024-01-20T06:25:32.681Z,10.8
2024-01-20T06:30:21.840Z,8.9
2024-01-20T06:35:27.804Z,10.6
2024-01-20T06:40:33.802Z,13.0
2024-01-20T06:45:22.931Z,12.8
2024-01-20T06:50:28.618Z,12.5
2024-01-20T06:55:17.723Z,11.3
2024-01-20T07:00:23.896Z,9.6
2024-01-20T07:05:30.840Z,11.3
2024-01-20T07:10:19.095Z,13.8
2024-01-20T07:15:25.297Z,13.2
2024-01-20T07:20:31.308Z,12.3
2024-01-20T07:25:20.295Z,13.3
2024-01-20T07:30:26.447Z,14.7
2024-01-20T07:35:32.441Z,13.4
2024-01-20T07:40:21.421Z,11.4
2024-01-20T07:45:27.632Z,13.3
2024-01-20T07:50:33.197Z,16.2
2024-01-20T07:55:22.068Z,14.4
2024-01-20T08:00:28.333Z,11.7
2024-01-20T08:05:35.607Z,11.8
2024-01-20T08:10:22.319Z,12.0
2024-01-20T08:15:28.489Z,13.7
2024-01-20T08:20:17.474Z,16.1
2024-01-20T08:25:23.527Z,17.6
2024-01-20T08:30:29.671Z,20.5
2024-01-20T08:35:18.530Z,17.0
2024-01-20T08:40:24.755Z,11.8
2024-01-20T08:45:30.889Z,12.8
2024-01-20T08:50:19.568Z,14.7
2024-01-20T08:55:25.587Z,14.6
2024-01-20T09:00:31.696Z,14.6
2024-01-20T09:05:20.933Z,13.8
2024-01-20T09:10:27.046Z,12.3
2024-01-20T09:15:33.040Z,12.8
2024-01-20T09:20:21.938Z,13.6
2024-01-20T09:25:28.153Z,13.0
2024-01-20T09:30:34.130Z,11.5
2024-01-20T09:35:23.182Z,12.9
2024-01-20T09:40:29.188Z,15.9
2024-01-20T09:45:18.379Z,14.2
2024-01-20T09:50:24.039Z,11.2
2024-01-20T09:55:30.015Z,11.8
2024-01-20T10:00:19.307Z,13.3
2024-01-20T10:05:24.341Z,13.5
2024-01-20T10:10:30.358Z,13.8
2024-01-20T10:15:19.469Z,13.4
2024-01-20T10:20:25.494Z,12.7
2024-01-20T10:25:31.498Z,12.7
2024-01-20T10:30:21.614Z,12.8
2024-01-20T10:35:26.825Z,13.5
2024-01-20T10:40:32.683Z,15.2
2024-01-20T10:45:21.914Z,14.7
2024-01-20T10:50:27.376Z,13.7
2024-01-20T10:55:33.481Z,13.3
2024-01-20T11:00:22.517Z,12.3
2024-01-20T11:05:29.031Z,12.5
2024-01-20T11:10:18.132Z,13.1
2024-01-20T11:15:24.157Z,12.7
2024-01-20T11:20:30.407Z,11.8
2024-01-20T11:25:19.245Z,12.6
2024-01-20T11:30:25.321Z,14.5
2024-01-20T11:35:31.348Z,14.3
2024-01-20T11:40:20.397Z,13.8
2024-01-20T11:45:26.479Z,13.8
2024-01-20T11:50:31.834Z,13.9
2024-01-20T11:55:20.846Z,13.8
2024-01-20T12:00:27.016Z,13.7
2024-01-20T12:05:33.223Z,13.5
2024-01-20T12:10:22.206Z,12.9
2024-01-20T12:15:28.198Z,13.9
2024-01-20T12:20:34.461Z,17.9
2024-01-20T12:25:23.153Z,18.1
2024-01-20T12:30:29.414Z,18.5
2024-01-20T12:35:18.401Z,17.2
2024-01-20T12:40:24.620Z,13.8
2024-01-20T12:45:30.679Z,13.7
2024-01-20T12:50:19.296Z,13.3
2024-01-20T12:55:25.326Z,13.1
2024-01-20T13:00:31.524Z,12.6
2024-01-20T13:05:20.857Z,12.4
2024-01-20T13:10:26.691Z,11.9
2024-01-20T13:15:32.952Z,12.0
2024-01-20T13:20:21.765Z,12.6
2024-01-20T13:25:29.745Z,13.0
2024-01-20T13:30:33.904Z,14.6
2024-01-20T13:35:22.912Z,14.3
2024-01-20T13:40:29.070Z,13.2
2024-01-20T13:45:18.234Z,13.1
2024-01-20T13:50:23.826Z,12.6
2024-01-20T13:55:29.746Z,12.6
2024-01-20T14:00:20.288Z,12.6
2024-01-20T14:05:25.068Z,12.8
2024-01-20T14:10:31.102Z,13.3
2024-01-20T14:15:20.259Z,14.2
2024-01-20T14:20:26.252Z,17.6
2024-01-20T14:25:32.242Z,16.2
2024-01-20T14:30:21.389Z,10.8
2024-01-20T14:35:27.529Z,11.2
2024-01-20T14:40:33.521Z,13.1
2024-01-20T14:45:22.545Z,13.3
2024-01-20T14:50:27.982Z,14.7
2024-01-20T14:55:33.949Z,14.6
2024-01-20T15:00:22.960Z,14.2
2024-01-20T15:05:32.046Z,14.2
2024-01-20T15:10:17.360Z,13.7
2024-01-20T15:15:23.545Z,13.5
2024-01-20T15:20:29.449Z,12.3
2024-01-20T15:25:18.555Z,12.4
2024-01-20T15:30:24.702Z,12.7
2024-01-20T15:35:30.732Z,12.5
2024-01-20T15:40:20.039Z,10.7
2024-01-20T15:45:26.002Z,10.9
2024-01-20T15:50:31.243Z,12.3
2024-01-20T15:55:20.359Z,12.2
2024-01-20T16:00:26.493Z,11.8
2024-01-20T16:05:32.648Z,11.7
2024-01-20T16:10:21.657Z,11.6
2024-01-20T16:15:27.845Z,11.5
2024-01-20T16:20:33.757Z,11.2
2024-01-20T16:25:22.782Z,11.0
2024-01-20T16:30:28.846Z,9.3
2024-01-20T16:35:17.870Z,9.6
2024-01-20T16:40:24.016Z,11.7
2024-01-20T16:45:30.186Z,11.7
2024-01-20T16:50:18.887Z,17.8
2024-01-20T16:55:24.774Z,17.8
2024-01-20T17:00:30.760Z,11.2
2024-01-20T17:05:20.141Z,11.6
2024-01-20T17:10:26.892Z,15.3
2024-01-20T17:15:32.162Z,15.3
2024-01-20T17:20:21.390Z,13.0
2024-01-20T17:25:27.323Z,13.0
2024-01-20T17:30:33.393Z,10.5
2024-01-20T17:35:22.456Z,10.5
2024-01-20T17:40:28.449Z,9.3
2024-01-20T17:45:34.558Z,9.3
2024-01-20T17:50:23.179Z,13.8
2024-01-20T17:55:29.266Z,13.8
2024-01-20T18:00:18.377Z,20.9
2024-01-20T18:05:23.709Z,20.9
2024-01-20T18:10:29.496Z,11.8
2024-01-20T18:15:18.617Z,11.8
2024-01-20T18:20:24.674Z,9.8
2024-01-20T18:25:30.720Z,9.8
2024-01-20T18:30:19.746Z,8.8
2024-01-20T18:35:25.776Z,8.8
2024-01-20T18:40:31.898Z,11.4
2024-01-20T18:45:21.102Z,11.4
2024-01-20T18:50:26.790Z,11.8
2024-01-20T18:55:32.756Z,11.8
2024-01-20T19:00:21.919Z,14.7
2024-01-20T19:05:27.454Z,14.7
2024-01-20T19:10:33.474Z,13.2
2024-01-20T19:15:22.595Z,13.2
2024-01-20T19:20:28.636Z,11.4
2024-01-20T19:25:17.532Z,11.4
2024-01-20T19:30:23.711Z,13.0
2024-01-20T19:35:29.708Z,13.0
2024-01-20T19:40:18.923Z,14.2
2024-01-20T19:45:24.989Z,14.2
2024-01-20T19:50:31.296Z,26.9
2024-01-20T19:55:20.296Z,26.9
2024-01-20T20:00:26.422Z,18.1
2024-01-20T20:05:31.516Z,18.1
2024-01-20T20:10:20.469Z,20.1
2024-01-20T20:15:26.632Z,20.1
2024-01-20T20:20:36.686Z,12.3
2024-01-20T20:25:21.764Z,11.5
2024-01-20T20:30:28.725Z,20.7
2024-01-20T20:35:33.809Z,21.7
2024-01-20T20:40:22.797Z,33.1
2024-01-20T20:45:28.876Z,33.1
2024-01-20T20:50:18.099Z,28.3
2024-01-20T20:55:24.321Z,27.8
2024-01-20T21:00:30.088Z,21.7
2024-01-20T21:05:19.074Z,21.1
2024-01-20T21:10:25.016Z,29.6
2024-01-20T21:15:31.325Z,29.6
2024-01-20T21:20:20.455Z,15.6
2024-01-20T21:25:26.216Z,14.2
2024-01-20T21:30:32.506Z,20.7
2024-01-20T21:35:21.440Z,21.4
2024-01-20T21:40:27.505Z,25.0
2024-01-20T21:45:33.674Z,25.4
2024-01-20T21:50:22.288Z,23.2
2024-01-20T21:55:28.443Z,23.0
2024-01-20T22:00:34.465Z,19.2
2024-01-20T22:05:22.727Z,18.8
2024-01-20T22:10:28.655Z,20.3
2024-01-20T22:15:17.809Z,20.4
2024-01-20T22:20:23.859Z,19.5
2024-01-20T22:25:29.912Z,19.4
2024-01-20T22:30:19.082Z,17.4
2024-01-20T22:35:25.008Z,17.2
2024-01-20T22:40:31.062Z,20.6
2024-01-20T22:45:20.195Z,21.0
2024-01-20T22:50:25.805Z,15.0
2024-01-20T22:55:31.840Z,14.4
2024-01-20T23:00:21.079Z,15.8
2024-01-20T23:05:27.450Z,16.0
2024-01-20T23:10:33.140Z,13.9
2024-01-20T23:15:22.430Z,13.7
2024-01-20T23:20:28.519Z,13.8
2024-01-20T23:25:34.499Z,13.8
2024-01-20T23:30:23.539Z,13.9
2024-01-20T23:35:29.544Z,13.9
2024-01-20T23:40:18.705Z,16.8
2024-01-20T23:45:24.850Z,17.1
2024-01-20T23:50:30.128Z,13.9
2024-01-20T23:55:19.312Z,13.2
